Flight Track Log - Related Links

Times and Time Zones

All times are in EDT time to prevent confusion due to time zone crossing. See the N2915G flight status page for this flight to view local times or setup timezone preferences in your user account.

Time Position Orientation Groundspeed Altitude Reporting Facility
EDT Latitude Longitude Course Direction KTS MPH feet Rate Location/Type
Sun 05:46:55 PM 27.9167 -82.6833 336° Northwest 120 138 400  Level Tampa TRACON
Sun 05:48:01 PM 27.9500 -82.7000 336° Northwest 92 106 1,200 378 Climbing Tampa TRACON
Sun 05:49:02 PM 27.9167 -82.7167 204° Southwest 124 143 1,200 149 Level Tampa TRACON
Sun 05:50:02 PM 27.9167 -82.7000 90° East 121 139 1,500 350 Climbing Tampa TRACON
Sun 05:51:02 PM 27.9333 -82.7167 319° Northwest 104 120 1,900 550 Climbing Tampa TRACON
Sun 05:52:02 PM 27.9667 -82.7000 24° Northeast 90 104 2,600 684 Climbing Tampa TRACON
Sun 05:52:56 PM 27.9667 -82.6833 90° East 90 104 3,200 650 Climbing Tampa TRACON
Sun 05:54:02 PM 27.9833 -82.6500 60° Northeast 93 107 3,900 400 Climbing Tampa TRACON
Sun 05:54:56 PM 27.9833 -82.6167 90° East 117 135 4,000  Climbing Tampa TRACON
Sun 05:56:02 PM 27.9833 -82.5667 90° East 138 159 3,900 -48 Descending Tampa TRACON
Sun 05:57:02 PM 27.9833 -82.5333 90° East 131 151 3,900  Level Tampa TRACON
Sun 05:57:56 PM 27.9667 -82.4833 111° Southeast 129 148 3,900  Level Tampa TRACON
Sun 05:59:02 PM 27.9667 -82.4500 90° East 127 146 3,900  Level Tampa TRACON
Sun 06:00:14 PM 27.9833 -82.4000 69° East 124 143 3,900 50 Level Tampa TRACON
Sun 06:01:02 PM 28.0000 -82.3833 41° Northeast 121 139 4,000 368 Climbing Tampa TRACON
Sun 06:02:08 PM 28.0167 -82.3500 60° Northeast 111 128 4,600 429 Climbing Tampa TRACON
Sun 06:03:08 PM 28.0333 -82.3167 60° Northeast 115 132 4,900 149 Climbing Tampa TRACON
Sun 06:04:09 PM 28.0500 -82.2833 60° Northeast 129 148 4,900 50 Level Tampa TRACON
Sun 06:05:09 PM 28.0667 -82.2500 60° Northeast 129 148 5,000  Climbing Tampa TRACON
Sun 06:06:14 PM 28.1000 -82.2167 41° Northeast 123 142 4,900  Descending Tampa TRACON
Sun 06:08:29 PM 28.1333 -82.1333 66° East 121 139 5,000 31 Climbing Orlando TRACON
Sun 06:09:29 PM 28.1500 -82.1000 60° Northeast 123 142 5,000 -53 Level Orlando TRACON
Sun 06:10:23 PM 28.1667 -82.0833 41° Northeast 124 143 4,900  Descending Orlando TRACON
Sun 06:11:23 PM 28.1667 -82.0333 90° East 128 147 5,000 50 Climbing Orlando TRACON
Sun 06:12:23 PM 28.1833 -82.0000 60° Northeast 125 144 5,000 -50 Level Orlando TRACON
Sun 06:13:23 PM 28.1833 -81.9667 90° East 127 146 4,900 -53 Descending Orlando TRACON
Sun 06:14:17 PM 28.2000 -81.9167 69° East 129 148 4,900 -53 Level Orlando TRACON
Sun 06:15:17 PM 28.2000 -81.8833 90° East 128 147 4,800 -283 Descending Orlando TRACON
Sun 06:16:24 PM 28.2167 -81.8333 69° East 141 162 4,300 -614 Descending Orlando TRACON
Sun 06:17:24 PM 28.2167 -81.7833 90° East 150 173 3,500 -864 Descending Orlando TRACON
Sun 06:18:29 PM 28.2333 -81.7333 69° East 152 175 2,500 -576 Descending Orlando TRACON
Sun 06:19:29 PM 28.2333 -81.7000 90° East 130 150 2,300 -149 Descending Orlando TRACON
Sun 06:20:30 PM 28.2500 -81.6667 60° Northeast 127 146 2,200 -149 Descending Orlando TRACON
Sun 06:21:30 PM 28.2500 -81.6167 90° East 128 147 2,000 -150 Descending Orlando TRACON
Sun 06:22:30 PM 28.2667 -81.5833 60° Northeast 133 153 1,900 -200 Descending Orlando TRACON
Sun 06:23:30 PM 28.2667 -81.5333 90° East 133 153 1,600 -316 Descending Orlando TRACON
Sun 06:24:24 PM 28.2667 -81.5000 90° East 136 157 1,300 -211 Descending Orlando TRACON
Sun 06:25:24 PM 28.2667 -81.4667 90° East 129 148 1,200 -300 Descending Orlando TRACON
Sun 06:26:24 PM 28.2667 -81.4333 90° East 89 102 700 -500 Descending Orlando TRACON
Sun 06:28:00 PM 28.2898 -81.4371 North  Level Estimated
Sun 06:35:00 PM 28.2898 -81.4371 103° East  Level Estimated
Sun 06:36:00 PM 28.2898 -81.4371 153° Southeast  Level Estimated

Login

Don't have an account? Register now (free) for customized features, flight alerts, and more!